Aviation Digital Data Service (ADDS)

Output produced by METARs form (0903 UTC 30 July 2014)
found at http://aviationweather.gov/adds/metars/
 
KAEX 300520Z 3006/3106 VRB03KT P6SM FEW060 
     FM301400 06005KT P6SM FEW060